sensor_id;sensor_type;location;lat;lon;timestamp;P1;durP1;ratioP1;P2;durP2;ratioP2
32780;SDS011;19136;47.032;15.502;2022-07-29T00:00:35;9.00;;;5.95;;
32780;SDS011;19136;47.032;15.502;2022-07-29T00:03:01;8.32;;;6.00;;
32780;SDS011;19136;47.032;15.502;2022-07-29T00:05:27;7.35;;;5.60;;
32780;SDS011;19136;47.032;15.502;2022-07-29T00:07:53;11.13;;;5.95;;
32780;SDS011;19136;47.032;15.502;2022-07-29T00:10:18;11.52;;;5.22;;
32780;SDS011;19136;47.032;15.502;2022-07-29T00:12:44;8.85;;;5.80;;
32780;SDS011;19136;47.032;15.502;2022-07-29T00:15:09;9.63;;;5.22;;
32780;SDS011;19136;47.032;15.502;2022-07-29T00:17:35;7.00;;;5.47;;
32780;SDS011;19136;47.032;15.502;2022-07-29T00:20:00;11.05;;;5.97;;
32780;SDS011;19136;47.032;15.502;2022-07-29T00:22:26;9.13;;;6.68;;
32780;SDS011;19136;47.032;15.502;2022-07-29T00:24:51;7.50;;;5.45;;
32780;SDS011;19136;47.032;15.502;2022-07-29T00:27:17;8.52;;;5.22;;
32780;SDS011;19136;47.032;15.502;2022-07-29T00:29:43;9.15;;;5.45;;
32780;SDS011;19136;47.032;15.502;2022-07-29T00:32:09;10.85;;;5.93;;
32780;SDS011;19136;47.032;15.502;2022-07-29T00:34:34;9.68;;;5.22;;
32780;SDS011;19136;47.032;15.502;2022-07-29T00:37:18;11.40;;;5.70;;
32780;SDS011;19136;47.032;15.502;2022-07-29T00:39:44;7.45;;;5.53;;
32780;SDS011;19136;47.032;15.502;2022-07-29T00:42:09;12.27;;;5.72;;
32780;SDS011;19136;47.032;15.502;2022-07-29T00:44:41;7.85;;;5.60;;
32780;SDS011;19136;47.032;15.502;2022-07-29T00:47:08;9.27;;;5.90;;
32780;SDS011;19136;47.032;15.502;2022-07-29T00:49:34;9.93;;;6.15;;
32780;SDS011;19136;47.032;15.502;2022-07-29T00:52:03;10.23;;;6.18;;
32780;SDS011;19136;47.032;15.502;2022-07-29T00:54:30;7.15;;;5.88;;
32780;SDS011;19136;47.032;15.502;2022-07-29T00:56:57;7.50;;;5.72;;
32780;SDS011;19136;47.032;15.502;2022-07-29T00:59:23;8.68;;;5.55;;
32780;SDS011;19136;47.032;15.502;2022-07-29T01:01:50;9.10;;;6.25;;
32780;SDS011;19136;47.032;15.502;2022-07-29T01:04:16;12.85;;;5.97;;
32780;SDS011;19136;47.032;15.502;2022-07-29T01:06:41;8.32;;;5.88;;
32780;SDS011;19136;47.032;15.502;2022-07-29T01:09:07;7.65;;;5.45;;
32780;SDS011;19136;47.032;15.502;2022-07-29T01:11:33;9.15;;;5.85;;
32780;SDS011;19136;47.032;15.502;2022-07-29T01:13:59;9.13;;;5.70;;
32780;SDS011;19136;47.032;15.502;2022-07-29T01:16:28;8.68;;;5.57;;
32780;SDS011;19136;47.032;15.502;2022-07-29T01:18:57;8.98;;;5.88;;
32780;SDS011;19136;47.032;15.502;2022-07-29T01:26:31;7.15;;;5.78;;
32780;SDS011;19136;47.032;15.502;2022-07-29T01:31:42;9.57;;;6.43;;
32780;SDS011;19136;47.032;15.502;2022-07-29T01:34:11;10.40;;;6.40;;
32780;SDS011;19136;47.032;15.502;2022-07-29T01:36:43;10.65;;;6.22;;
32780;SDS011;19136;47.032;15.502;2022-07-29T01:39:14;8.70;;;6.00;;
32780;SDS011;19136;47.032;15.502;2022-07-29T01:41:49;11.48;;;6.10;;
32780;SDS011;19136;47.032;15.502;2022-07-29T01:44:26;8.23;;;5.53;;
32780;SDS011;19136;47.032;15.502;2022-07-29T01:46:57;9.13;;;5.63;;
32780;SDS011;19136;47.032;15.502;2022-07-29T01:49:25;8.10;;;6.25;;
32780;SDS011;19136;47.032;15.502;2022-07-29T01:51:58;8.10;;;5.97;;
32780;SDS011;19136;47.032;15.502;2022-07-29T01:54:30;8.60;;;6.30;;
32780;SDS011;19136;47.032;15.502;2022-07-29T01:57:00;8.05;;;6.07;;
32780;SDS011;19136;47.032;15.502;2022-07-29T01:59:26;12.02;;;6.85;;
32780;SDS011;19136;47.032;15.502;2022-07-29T02:01:53;9.90;;;6.78;;
32780;SDS011;19136;47.032;15.502;2022-07-29T02:04:19;8.63;;;6.53;;
32780;SDS011;19136;47.032;15.502;2022-07-29T02:06:46;6.72;;;5.95;;
32780;SDS011;19136;47.032;15.502;2022-07-29T02:09:15;8.02;;;6.28;;
32780;SDS011;19136;47.032;15.502;2022-07-29T02:11:42;9.48;;;6.80;;
32780;SDS011;19136;47.032;15.502;2022-07-29T02:14:15;10.35;;;7.20;;
32780;SDS011;19136;47.032;15.502;2022-07-29T02:16:43;8.35;;;6.60;;
32780;SDS011;19136;47.032;15.502;2022-07-29T02:19:09;9.27;;;6.30;;
32780;SDS011;19136;47.032;15.502;2022-07-29T02:21:35;9.25;;;6.47;;
32780;SDS011;19136;47.032;15.502;2022-07-29T02:24:01;12.10;;;6.93;;
32780;SDS011;19136;47.032;15.502;2022-07-29T02:26:27;8.48;;;6.70;;
32780;SDS011;19136;47.032;15.502;2022-07-29T02:28:54;9.23;;;6.80;;
32780;SDS011;19136;47.032;15.502;2022-07-29T02:31:21;9.52;;;7.38;;
32780;SDS011;19136;47.032;15.502;2022-07-29T02:33:49;8.63;;;6.85;;
32780;SDS011;19136;47.032;15.502;2022-07-29T02:36:15;8.60;;;6.25;;
32780;SDS011;19136;47.032;15.502;2022-07-29T02:38:41;13.30;;;7.07;;
32780;SDS011;19136;47.032;15.502;2022-07-29T02:41:19;10.10;;;7.03;;
32780;SDS011;19136;47.032;15.502;2022-07-29T02:43:50;11.20;;;7.60;;
32780;SDS011;19136;47.032;15.502;2022-07-29T02:46:21;12.80;;;7.35;;
32780;SDS011;19136;47.032;15.502;2022-07-29T02:49:04;11.88;;;8.00;;
32780;SDS011;19136;47.032;15.502;2022-07-29T02:51:49;11.38;;;7.22;;
32780;SDS011;19136;47.032;15.502;2022-07-29T02:54:31;13.95;;;7.03;;
32780;SDS011;19136;47.032;15.502;2022-07-29T02:57:32;9.80;;;7.30;;
32780;SDS011;19136;47.032;15.502;2022-07-29T03:00:03;10.50;;;7.03;;
32780;SDS011;19136;47.032;15.502;2022-07-29T03:02:33;11.52;;;7.13;;
32780;SDS011;19136;47.032;15.502;2022-07-29T03:05:02;9.40;;;7.20;;
32780;SDS011;19136;47.032;15.502;2022-07-29T03:07:29;10.88;;;6.65;;
32780;SDS011;19136;47.032;15.502;2022-07-29T03:09:55;10.18;;;7.63;;
32780;SDS011;19136;47.032;15.502;2022-07-29T03:12:22;10.15;;;7.32;;
32780;SDS011;19136;47.032;15.502;2022-07-29T03:14:48;9.82;;;7.13;;
32780;SDS011;19136;47.032;15.502;2022-07-29T03:17:13;11.45;;;8.20;;
32780;SDS011;19136;47.032;15.502;2022-07-29T03:19:40;16.40;;;7.75;;
32780;SDS011;19136;47.032;15.502;2022-07-29T03:22:08;12.32;;;7.80;;
32780;SDS011;19136;47.032;15.502;2022-07-29T03:24:35;8.13;;;7.20;;
32780;SDS011;19136;47.032;15.502;2022-07-29T03:27:02;10.50;;;6.88;;
32780;SDS011;19136;47.032;15.502;2022-07-29T03:29:28;8.57;;;7.20;;
32780;SDS011;19136;47.032;15.502;2022-07-29T03:31:54;10.27;;;7.47;;
32780;SDS011;19136;47.032;15.502;2022-07-29T03:34:20;10.82;;;6.85;;
32780;SDS011;19136;47.032;15.502;2022-07-29T03:36:46;12.50;;;7.45;;
32780;SDS011;19136;47.032;15.502;2022-07-29T03:39:11;8.20;;;7.18;;
32780;SDS011;19136;47.032;15.502;2022-07-29T03:41:41;13.27;;;7.78;;
32780;SDS011;19136;47.032;15.502;2022-07-29T03:44:09;13.30;;;7.68;;
32780;SDS011;19136;47.032;15.502;2022-07-29T03:46:35;9.75;;;7.30;;
32780;SDS011;19136;47.032;15.502;2022-07-29T03:49:01;14.10;;;7.20;;
32780;SDS011;19136;47.032;15.502;2022-07-29T03:51:28;11.35;;;6.72;;
32780;SDS011;19136;47.032;15.502;2022-07-29T03:53:54;12.13;;;7.18;;
32780;SDS011;19136;47.032;15.502;2022-07-29T03:56:21;4.70;;;2.55;;
32780;SDS011;19136;47.032;15.502;2022-07-29T03:58:50;7.35;;;4.68;;
32780;SDS011;19136;47.032;15.502;2022-07-29T04:01:17;9.10;;;5.50;;
32780;SDS011;19136;47.032;15.502;2022-07-29T04:03:44;9.05;;;6.28;;
32780;SDS011;19136;47.032;15.502;2022-07-29T04:06:13;11.52;;;5.25;;
32780;SDS011;19136;47.032;15.502;2022-07-29T04:08:38;11.63;;;6.10;;
32780;SDS011;19136;47.032;15.502;2022-07-29T04:11:04;10.50;;;5.43;;
32780;SDS011;19136;47.032;15.502;2022-07-29T04:13:30;6.97;;;5.32;;
32780;SDS011;19136;47.032;15.502;2022-07-29T04:15:57;7.85;;;5.70;;
32780;SDS011;19136;47.032;15.502;2022-07-29T04:18:23;12.35;;;5.95;;
32780;SDS011;19136;47.032;15.502;2022-07-29T04:20:49;8.50;;;5.07;;
32780;SDS011;19136;47.032;15.502;2022-07-29T04:23:14;8.10;;;5.35;;
32780;SDS011;19136;47.032;15.502;2022-07-29T04:25:40;9.13;;;5.45;;
32780;SDS011;19136;47.032;15.502;2022-07-29T04:28:07;12.13;;;5.22;;
32780;SDS011;19136;47.032;15.502;2022-07-29T04:30:33;8.95;;;5.18;;
32780;SDS011;19136;47.032;15.502;2022-07-29T04:33:00;12.07;;;6.05;;
32780;SDS011;19136;47.032;15.502;2022-07-29T04:35:29;8.98;;;5.38;;
32780;SDS011;19136;47.032;15.502;2022-07-29T04:37:55;9.02;;;6.22;;
32780;SDS011;19136;47.032;15.502;2022-07-29T04:40:21;8.48;;;6.00;;
32780;SDS011;19136;47.032;15.502;2022-07-29T04:42:46;7.65;;;5.82;;
32780;SDS011;19136;47.032;15.502;2022-07-29T04:45:15;12.70;;;5.63;;
32780;SDS011;19136;47.032;15.502;2022-07-29T04:47:40;10.18;;;5.40;;
32780;SDS011;19136;47.032;15.502;2022-07-29T04:50:06;8.60;;;5.45;;
32780;SDS011;19136;47.032;15.502;2022-07-29T04:52:33;7.10;;;4.97;;
32780;SDS011;19136;47.032;15.502;2022-07-29T04:55:00;11.18;;;5.40;;
32780;SDS011;19136;47.032;15.502;2022-07-29T04:57:26;10.35;;;5.10;;
32780;SDS011;19136;47.032;15.502;2022-07-29T04:59:51;8.20;;;5.22;;
32780;SDS011;19136;47.032;15.502;2022-07-29T05:02:18;10.70;;;5.32;;
32780;SDS011;19136;47.032;15.502;2022-07-29T05:04:44;7.10;;;4.53;;
32780;SDS011;19136;47.032;15.502;2022-07-29T05:07:10;8.90;;;4.63;;
32780;SDS011;19136;47.032;15.502;2022-07-29T05:09:35;7.65;;;4.47;;
32780;SDS011;19136;47.032;15.502;2022-07-29T05:12:01;6.63;;;4.82;;
32780;SDS011;19136;47.032;15.502;2022-07-29T05:14:26;7.65;;;4.95;;
32780;SDS011;19136;47.032;15.502;2022-07-29T05:16:52;7.47;;;4.97;;
32780;SDS011;19136;47.032;15.502;2022-07-29T05:19:21;12.77;;;5.15;;
32780;SDS011;19136;47.032;15.502;2022-07-29T05:21:47;8.85;;;5.63;;
32780;SDS011;19136;47.032;15.502;2022-07-29T05:24:13;12.27;;;6.03;;
32780;SDS011;19136;47.032;15.502;2022-07-29T05:26:39;8.00;;;5.60;;
32780;SDS011;19136;47.032;15.502;2022-07-29T05:29:05;8.18;;;5.40;;
32780;SDS011;19136;47.032;15.502;2022-07-29T05:31:30;9.77;;;5.90;;
32780;SDS011;19136;47.032;15.502;2022-07-29T05:33:56;11.40;;;7.13;;
32780;SDS011;19136;47.032;15.502;2022-07-29T05:36:21;11.38;;;6.35;;
32780;SDS011;19136;47.032;15.502;2022-07-29T05:38:47;14.50;;;7.32;;
32780;SDS011;19136;47.032;15.502;2022-07-29T05:41:13;12.65;;;7.28;;
32780;SDS011;19136;47.032;15.502;2022-07-29T05:43:38;13.77;;;7.40;;
32780;SDS011;19136;47.032;15.502;2022-07-29T05:46:04;11.43;;;6.00;;
32780;SDS011;19136;47.032;15.502;2022-07-29T05:48:29;9.43;;;6.57;;
32780;SDS011;19136;47.032;15.502;2022-07-29T05:50:55;9.40;;;6.05;;
32780;SDS011;19136;47.032;15.502;2022-07-29T05:53:21;15.57;;;6.65;;
32780;SDS011;19136;47.032;15.502;2022-07-29T05:55:49;10.55;;;6.97;;
32780;SDS011;19136;47.032;15.502;2022-07-29T05:58:15;10.88;;;6.72;;
32780;SDS011;19136;47.032;15.502;2022-07-29T06:00:41;12.25;;;6.72;;
32780;SDS011;19136;47.032;15.502;2022-07-29T06:03:07;9.48;;;7.25;;
32780;SDS011;19136;47.032;15.502;2022-07-29T06:05:32;12.85;;;6.63;;
32780;SDS011;19136;47.032;15.502;2022-07-29T06:07:58;13.65;;;6.60;;
32780;SDS011;19136;47.032;15.502;2022-07-29T06:10:24;11.80;;;7.28;;
32780;SDS011;19136;47.032;15.502;2022-07-29T06:12:51;13.18;;;8.25;;
32780;SDS011;19136;47.032;15.502;2022-07-29T06:15:16;10.57;;;6.55;;
32780;SDS011;19136;47.032;15.502;2022-07-29T06:17:44;14.13;;;6.95;;
32780;SDS011;19136;47.032;15.502;2022-07-29T06:20:10;14.88;;;6.68;;
32780;SDS011;19136;47.032;15.502;2022-07-29T06:22:36;16.50;;;7.30;;
32780;SDS011;19136;47.032;15.502;2022-07-29T06:25:02;13.75;;;7.32;;
32780;SDS011;19136;47.032;15.502;2022-07-29T06:27:28;13.38;;;6.25;;
32780;SDS011;19136;47.032;15.502;2022-07-29T06:29:55;17.63;;;6.50;;
32780;SDS011;19136;47.032;15.502;2022-07-29T06:32:21;15.70;;;6.60;;
32780;SDS011;19136;47.032;15.502;2022-07-29T06:34:48;9.55;;;6.38;;
32780;SDS011;19136;47.032;15.502;2022-07-29T06:37:14;14.65;;;6.30;;
32780;SDS011;19136;47.032;15.502;2022-07-29T06:39:40;9.25;;;5.85;;
32780;SDS011;19136;47.032;15.502;2022-07-29T06:42:05;13.68;;;6.05;;
32780;SDS011;19136;47.032;15.502;2022-07-29T06:44:31;11.30;;;6.18;;
32780;SDS011;19136;47.032;15.502;2022-07-29T06:47:02;12.02;;;5.65;;
32780;SDS011;19136;47.032;15.502;2022-07-29T06:49:27;10.63;;;6.05;;
32780;SDS011;19136;47.032;15.502;2022-07-29T06:51:54;9.13;;;6.07;;
32780;SDS011;19136;47.032;15.502;2022-07-29T06:54:20;10.77;;;6.43;;
32780;SDS011;19136;47.032;15.502;2022-07-29T06:56:46;14.80;;;6.38;;
32780;SDS011;19136;47.032;15.502;2022-07-29T06:59:12;10.80;;;6.25;;
32780;SDS011;19136;47.032;15.502;2022-07-29T07:01:39;14.40;;;6.10;;
32780;SDS011;19136;47.032;15.502;2022-07-29T07:04:06;11.98;;;5.85;;
32780;SDS011;19136;47.032;15.502;2022-07-29T07:06:33;8.20;;;5.50;;
32780;SDS011;19136;47.032;15.502;2022-07-29T07:08:59;10.68;;;5.40;;
32780;SDS011;19136;47.032;15.502;2022-07-29T07:11:25;6.57;;;4.55;;
32780;SDS011;19136;47.032;15.502;2022-07-29T07:13:54;9.60;;;5.00;;
32780;SDS011;19136;47.032;15.502;2022-07-29T07:16:19;9.65;;;5.38;;
32780;SDS011;19136;47.032;15.502;2022-07-29T07:18:45;10.88;;;5.53;;
32780;SDS011;19136;47.032;15.502;2022-07-29T07:21:11;6.82;;;4.57;;
32780;SDS011;19136;47.032;15.502;2022-07-29T07:23:36;6.80;;;5.07;;
32780;SDS011;19136;47.032;15.502;2022-07-29T07:26:05;8.55;;;5.00;;
32780;SDS011;19136;47.032;15.502;2022-07-29T07:28:31;7.40;;;5.13;;
32780;SDS011;19136;47.032;15.502;2022-07-29T07:30:56;5.70;;;4.88;;
32780;SDS011;19136;47.032;15.502;2022-07-29T07:33:22;7.38;;;4.45;;
32780;SDS011;19136;47.032;15.502;2022-07-29T07:35:48;12.70;;;5.00;;
32780;SDS011;19136;47.032;15.502;2022-07-29T07:38:13;10.95;;;4.93;;
32780;SDS011;19136;47.032;15.502;2022-07-29T07:40:39;6.90;;;4.90;;
32780;SDS011;19136;47.032;15.502;2022-07-29T07:43:05;8.57;;;4.75;;
32780;SDS011;19136;47.032;15.502;2022-07-29T07:45:31;7.82;;;4.70;;
32780;SDS011;19136;47.032;15.502;2022-07-29T07:48:01;8.48;;;4.82;;
32780;SDS011;19136;47.032;15.502;2022-07-29T07:50:27;8.82;;;4.70;;
32780;SDS011;19136;47.032;15.502;2022-07-29T07:52:54;10.02;;;5.13;;
32780;SDS011;19136;47.032;15.502;2022-07-29T07:55:22;8.10;;;4.65;;
32780;SDS011;19136;47.032;15.502;2022-07-29T07:57:49;6.45;;;5.00;;
32780;SDS011;19136;47.032;15.502;2022-07-29T08:00:15;7.25;;;4.60;;
32780;SDS011;19136;47.032;15.502;2022-07-29T08:02:41;8.82;;;4.50;;
32780;SDS011;19136;47.032;15.502;2022-07-29T08:05:07;7.43;;;4.88;;
32780;SDS011;19136;47.032;15.502;2022-07-29T08:07:33;6.90;;;4.60;;
32780;SDS011;19136;47.032;15.502;2022-07-29T08:10:02;5.28;;;4.00;;
32780;SDS011;19136;47.032;15.502;2022-07-29T08:12:28;6.72;;;4.35;;
32780;SDS011;19136;47.032;15.502;2022-07-29T08:14:57;5.53;;;4.07;;
32780;SDS011;19136;47.032;15.502;2022-07-29T08:17:22;5.88;;;3.67;;
32780;SDS011;19136;47.032;15.502;2022-07-29T08:19:48;6.25;;;4.13;;
32780;SDS011;19136;47.032;15.502;2022-07-29T08:22:14;5.88;;;3.60;;
32780;SDS011;19136;47.032;15.502;2022-07-29T08:24:40;6.60;;;3.88;;
32780;SDS011;19136;47.032;15.502;2022-07-29T08:27:12;7.38;;;3.67;;
32780;SDS011;19136;47.032;15.502;2022-07-29T08:29:38;7.95;;;3.75;;
32780;SDS011;19136;47.032;15.502;2022-07-29T08:32:05;6.53;;;3.83;;
32780;SDS011;19136;47.032;15.502;2022-07-29T08:34:31;5.45;;;4.10;;
32780;SDS011;19136;47.032;15.502;2022-07-29T08:36:57;10.82;;;4.05;;
32780;SDS011;19136;47.032;15.502;2022-07-29T08:39:22;6.72;;;3.40;;
32780;SDS011;19136;47.032;15.502;2022-07-29T08:41:48;5.93;;;3.28;;
32780;SDS011;19136;47.032;15.502;2022-07-29T08:44:16;9.25;;;3.85;;
32780;SDS011;19136;47.032;15.502;2022-07-29T08:46:42;8.75;;;3.42;;
32780;SDS011;19136;47.032;15.502;2022-07-29T08:49:08;5.15;;;3.05;;
32780;SDS011;19136;47.032;15.502;2022-07-29T08:51:34;7.75;;;3.38;;
32780;SDS011;19136;47.032;15.502;2022-07-29T08:54:01;8.00;;;3.60;;
32780;SDS011;19136;47.032;15.502;2022-07-29T08:56:27;5.05;;;3.30;;
32780;SDS011;19136;47.032;15.502;2022-07-29T08:58:53;7.35;;;3.35;;
32780;SDS011;19136;47.032;15.502;2022-07-29T09:01:23;7.55;;;3.45;;
32780;SDS011;19136;47.032;15.502;2022-07-29T09:03:51;6.85;;;3.65;;
32780;SDS011;19136;47.032;15.502;2022-07-29T09:06:20;5.72;;;3.70;;
32780;SDS011;19136;47.032;15.502;2022-07-29T09:08:47;4.70;;;3.50;;
32780;SDS011;19136;47.032;15.502;2022-07-29T09:11:13;5.72;;;3.40;;
32780;SDS011;19136;47.032;15.502;2022-07-29T09:13:39;8.25;;;4.18;;
32780;SDS011;19136;47.032;15.502;2022-07-29T09:16:05;6.88;;;3.40;;
32780;SDS011;19136;47.032;15.502;2022-07-29T09:18:34;7.95;;;3.85;;
32780;SDS011;19136;47.032;15.502;2022-07-29T09:21:08;8.57;;;3.90;;
32780;SDS011;19136;47.032;15.502;2022-07-29T09:24:03;9.20;;;4.40;;
32780;SDS011;19136;47.032;15.502;2022-07-29T09:26:39;5.97;;;3.95;;
32780;SDS011;19136;47.032;15.502;2022-07-29T09:29:11;9.10;;;3.90;;
32780;SDS011;19136;47.032;15.502;2022-07-29T09:31:41;8.07;;;4.10;;
32780;SDS011;19136;47.032;15.502;2022-07-29T09:34:09;8.02;;;3.95;;
32780;SDS011;19136;47.032;15.502;2022-07-29T09:36:54;10.73;;;5.03;;
32780;SDS011;19136;47.032;15.502;2022-07-29T09:39:53;12.43;;;4.70;;
32780;SDS011;19136;47.032;15.502;2022-07-29T09:42:12;8.00;;;4.50;;
32780;SDS011;19136;47.032;15.502;2022-07-29T09:44:44;5.95;;;4.88;;
32780;SDS011;19136;47.032;15.502;2022-07-29T09:47:11;9.30;;;4.30;;
32780;SDS011;19136;47.032;15.502;2022-07-29T09:49:56;7.65;;;4.78;;
32780;SDS011;19136;47.032;15.502;2022-07-29T09:52:24;8.70;;;4.72;;
32780;SDS011;19136;47.032;15.502;2022-07-29T09:54:51;7.18;;;4.68;;
32780;SDS011;19136;47.032;15.502;2022-07-29T09:57:24;9.88;;;4.70;;
32780;SDS011;19136;47.032;15.502;2022-07-29T09:59:58;7.95;;;5.03;;
32780;SDS011;19136;47.032;15.502;2022-07-29T10:02:30;5.85;;;4.57;;
32780;SDS011;19136;47.032;15.502;2022-07-29T10:04:58;5.60;;;4.68;;
32780;SDS011;19136;47.032;15.502;2022-07-29T10:07:25;9.13;;;4.32;;
32780;SDS011;19136;47.032;15.502;2022-07-29T10:09:57;6.47;;;4.45;;
32780;SDS011;19136;47.032;15.502;2022-07-29T10:12:23;14.15;;;4.55;;
32780;SDS011;19136;47.032;15.502;2022-07-29T10:14:49;11.02;;;3.80;;
32780;SDS011;19136;47.032;15.502;2022-07-29T10:17:16;6.68;;;4.40;;
32780;SDS011;19136;47.032;15.502;2022-07-29T10:19:43;6.15;;;4.22;;
32780;SDS011;19136;47.032;15.502;2022-07-29T10:22:09;11.75;;;4.30;;
32780;SDS011;19136;47.032;15.502;2022-07-29T10:24:35;9.43;;;4.45;;
32780;SDS011;19136;47.032;15.502;2022-07-29T10:27:04;5.85;;;4.07;;
32780;SDS011;19136;47.032;15.502;2022-07-29T10:29:30;10.02;;;4.70;;
32780;SDS011;19136;47.032;15.502;2022-07-29T10:34:36;12.35;;;4.35;;
32780;SDS011;19136;47.032;15.502;2022-07-29T10:40:11;8.27;;;4.80;;
32780;SDS011;19136;47.032;15.502;2022-07-29T10:43:37;6.43;;;4.20;;
32780;SDS011;19136;47.032;15.502;2022-07-29T10:45:59;5.28;;;4.20;;
32780;SDS011;19136;47.032;15.502;2022-07-29T10:48:25;4.55;;;3.63;;
32780;SDS011;19136;47.032;15.502;2022-07-29T10:50:55;8.05;;;4.35;;
32780;SDS011;19136;47.032;15.502;2022-07-29T10:53:22;8.23;;;3.72;;
32780;SDS011;19136;47.032;15.502;2022-07-29T10:55:48;6.57;;;4.07;;
32780;SDS011;19136;47.032;15.502;2022-07-29T10:58:19;8.43;;;4.07;;
32780;SDS011;19136;47.032;15.502;2022-07-29T11:00:46;7.32;;;3.78;;
32780;SDS011;19136;47.032;15.502;2022-07-29T11:04:13;6.80;;;3.67;;
32780;SDS011;19136;47.032;15.502;2022-07-29T11:06:17;7.97;;;4.40;;
32780;SDS011;19136;47.032;15.502;2022-07-29T11:08:42;9.05;;;4.10;;
32780;SDS011;19136;47.032;15.502;2022-07-29T11:16:16;7.10;;;4.13;;
32780;SDS011;19136;47.032;15.502;2022-07-29T11:21:43;5.25;;;3.92;;
32780;SDS011;19136;47.032;15.502;2022-07-29T11:24:35;8.05;;;3.63;;
32780;SDS011;19136;47.032;15.502;2022-07-29T11:27:07;6.70;;;3.38;;
32780;SDS011;19136;47.032;15.502;2022-07-29T11:32:09;8.00;;;3.83;;
32780;SDS011;19136;47.032;15.502;2022-07-29T11:34:36;7.72;;;3.60;;
32780;SDS011;19136;47.032;15.502;2022-07-29T11:39:40;5.72;;;3.50;;
32780;SDS011;19136;47.032;15.502;2022-07-29T11:47:31;5.70;;;3.50;;
32780;SDS011;19136;47.032;15.502;2022-07-29T11:49:59;9.52;;;3.88;;
32780;SDS011;19136;47.032;15.502;2022-07-29T11:52:36;8.80;;;4.20;;
32780;SDS011;19136;47.032;15.502;2022-07-29T11:55:10;7.47;;;4.00;;
32780;SDS011;19136;47.032;15.502;2022-07-29T11:57:38;5.68;;;3.47;;
32780;SDS011;19136;47.032;15.502;2022-07-29T12:00:11;9.77;;;3.63;;
32780;SDS011;19136;47.032;15.502;2022-07-29T12:02:43;9.98;;;3.60;;
32780;SDS011;19136;47.032;15.502;2022-07-29T12:05:09;11.20;;;3.83;;
32780;SDS011;19136;47.032;15.502;2022-07-29T12:07:36;8.27;;;3.95;;
32780;SDS011;19136;47.032;15.502;2022-07-29T12:10:03;8.82;;;3.70;;
32780;SDS011;19136;47.032;15.502;2022-07-29T12:12:29;7.15;;;3.67;;
32780;SDS011;19136;47.032;15.502;2022-07-29T12:14:55;7.25;;;3.70;;
32780;SDS011;19136;47.032;15.502;2022-07-29T12:17:27;6.55;;;3.55;;
32780;SDS011;19136;47.032;15.502;2022-07-29T12:19:58;7.65;;;3.35;;
32780;SDS011;19136;47.032;15.502;2022-07-29T12:22:34;7.20;;;4.28;;
32780;SDS011;19136;47.032;15.502;2022-07-29T12:25:09;8.57;;;3.92;;
32780;SDS011;19136;47.032;15.502;2022-07-29T12:27:36;7.15;;;3.70;;
32780;SDS011;19136;47.032;15.502;2022-07-29T12:30:07;7.03;;;3.67;;
32780;SDS011;19136;47.032;15.502;2022-07-29T12:32:37;9.50;;;3.50;;
32780;SDS011;19136;47.032;15.502;2022-07-29T12:35:09;11.20;;;3.50;;
32780;SDS011;19136;47.032;15.502;2022-07-29T12:37:37;9.48;;;3.78;;
32780;SDS011;19136;47.032;15.502;2022-07-29T12:40:04;14.23;;;4.47;;
32780;SDS011;19136;47.032;15.502;2022-07-29T12:42:30;7.97;;;3.88;;
32780;SDS011;19136;47.032;15.502;2022-07-29T12:44:56;5.38;;;3.50;;
32780;SDS011;19136;47.032;15.502;2022-07-29T12:47:22;7.57;;;3.60;;
32780;SDS011;19136;47.032;15.502;2022-07-29T12:49:48;5.82;;;3.58;;
32780;SDS011;19136;47.032;15.502;2022-07-29T12:52:31;5.97;;;3.47;;
32780;SDS011;19136;47.032;15.502;2022-07-29T12:54:58;7.07;;;3.38;;
32780;SDS011;19136;47.032;15.502;2022-07-29T12:57:24;8.73;;;3.85;;
32780;SDS011;19136;47.032;15.502;2022-07-29T13:00:08;9.93;;;3.70;;
32780;SDS011;19136;47.032;15.502;2022-07-29T13:02:36;8.38;;;3.58;;
32780;SDS011;19136;47.032;15.502;2022-07-29T13:05:02;13.35;;;4.25;;
32780;SDS011;19136;47.032;15.502;2022-07-29T13:07:29;7.75;;;4.95;;
32780;SDS011;19136;47.032;15.502;2022-07-29T13:12:34;11.50;;;4.05;;
32780;SDS011;19136;47.032;15.502;2022-07-29T13:15:01;9.30;;;4.22;;
32780;SDS011;19136;47.032;15.502;2022-07-29T13:17:41;5.70;;;3.97;;
32780;SDS011;19136;47.032;15.502;2022-07-29T13:20:08;6.15;;;3.90;;
32780;SDS011;19136;47.032;15.502;2022-07-29T13:22:37;9.05;;;4.25;;
32780;SDS011;19136;47.032;15.502;2022-07-29T13:25:03;13.32;;;3.67;;
32780;SDS011;19136;47.032;15.502;2022-07-29T13:27:32;8.63;;;4.18;;
32780;SDS011;19136;47.032;15.502;2022-07-29T13:30:00;14.05;;;4.20;;
32780;SDS011;19136;47.032;15.502;2022-07-29T13:32:27;6.43;;;4.22;;
32780;SDS011;19136;47.032;15.502;2022-07-29T13:34:58;12.07;;;3.90;;
32780;SDS011;19136;47.032;15.502;2022-07-29T13:37:25;11.85;;;4.95;;
32780;SDS011;19136;47.032;15.502;2022-07-29T13:39:51;7.50;;;4.20;;
32780;SDS011;19136;47.032;15.502;2022-07-29T13:42:18;11.13;;;4.38;;
32780;SDS011;19136;47.032;15.502;2022-07-29T13:44:43;12.95;;;3.85;;
32780;SDS011;19136;47.032;15.502;2022-07-29T13:47:09;9.45;;;4.05;;
32780;SDS011;19136;47.032;15.502;2022-07-29T13:49:35;7.88;;;4.07;;
32780;SDS011;19136;47.032;15.502;2022-07-29T13:52:01;7.65;;;4.20;;
32780;SDS011;19136;47.032;15.502;2022-07-29T13:54:26;9.85;;;4.10;;
32780;SDS011;19136;47.032;15.502;2022-07-29T13:56:52;8.05;;;4.45;;
32780;SDS011;19136;47.032;15.502;2022-07-29T13:59:18;6.95;;;3.92;;
32780;SDS011;19136;47.032;15.502;2022-07-29T14:01:43;11.20;;;4.25;;
32780;SDS011;19136;47.032;15.502;2022-07-29T14:04:09;7.25;;;4.15;;
32780;SDS011;19136;47.032;15.502;2022-07-29T14:06:35;5.70;;;4.15;;
32780;SDS011;19136;47.032;15.502;2022-07-29T14:09:01;5.60;;;4.30;;
32780;SDS011;19136;47.032;15.502;2022-07-29T14:11:27;9.18;;;4.40;;
32780;SDS011;19136;47.032;15.502;2022-07-29T14:13:53;10.38;;;4.18;;
32780;SDS011;19136;47.032;15.502;2022-07-29T14:16:18;9.88;;;4.40;;
32780;SDS011;19136;47.032;15.502;2022-07-29T14:18:44;8.00;;;3.92;;
32780;SDS011;19136;47.032;15.502;2022-07-29T14:21:09;9.65;;;4.35;;
32780;SDS011;19136;47.032;15.502;2022-07-29T14:23:36;10.02;;;4.03;;
32780;SDS011;19136;47.032;15.502;2022-07-29T14:26:01;10.88;;;4.28;;
32780;SDS011;19136;47.032;15.502;2022-07-29T14:28:27;10.80;;;4.20;;
32780;SDS011;19136;47.032;15.502;2022-07-29T14:30:52;9.85;;;4.20;;
32780;SDS011;19136;47.032;15.502;2022-07-29T14:33:18;8.73;;;4.03;;
32780;SDS011;19136;47.032;15.502;2022-07-29T14:35:45;12.00;;;4.10;;
32780;SDS011;19136;47.032;15.502;2022-07-29T14:38:10;6.22;;;4.28;;
32780;SDS011;19136;47.032;15.502;2022-07-29T14:40:36;13.05;;;4.38;;
32780;SDS011;19136;47.032;15.502;2022-07-29T14:43:02;8.20;;;6.32;;
32780;SDS011;19136;47.032;15.502;2022-07-29T14:45:27;14.77;;;4.75;;
32780;SDS011;19136;47.032;15.502;2022-07-29T14:47:53;8.68;;;4.32;;
32780;SDS011;19136;47.032;15.502;2022-07-29T14:50:19;9.35;;;4.00;;
32780;SDS011;19136;47.032;15.502;2022-07-29T14:52:45;10.23;;;3.90;;
32780;SDS011;19136;47.032;15.502;2022-07-29T14:55:11;10.05;;;4.10;;
32780;SDS011;19136;47.032;15.502;2022-07-29T14:57:36;5.22;;;4.15;;
32780;SDS011;19136;47.032;15.502;2022-07-29T15:00:03;9.50;;;3.90;;
32780;SDS011;19136;47.032;15.502;2022-07-29T15:02:31;6.50;;;4.00;;
32780;SDS011;19136;47.032;15.502;2022-07-29T15:04:57;7.40;;;4.43;;
32780;SDS011;19136;47.032;15.502;2022-07-29T15:07:22;7.53;;;3.92;;
32780;SDS011;19136;47.032;15.502;2022-07-29T15:09:48;8.27;;;4.22;;